createdAt,value
2023-05-17T09:28:47.462Z,98925.14
2023-05-17T09:31:16.790Z,98923.22
2023-05-17T09:33:48.303Z,98923.17
2023-05-17T09:36:18.298Z,98919.52
2023-05-17T09:39:02.063Z,98922.58
2023-05-17T09:41:43.087Z,98921.32
2023-05-17T09:44:10.577Z,98920.05
2023-05-17T09:46:48.057Z,98916.63
2023-05-17T09:49:16.357Z,98918.71
2023-05-17T09:51:45.035Z,98918.39
2023-05-17T09:54:12.477Z,98917.63
2023-05-17T09:56:44.282Z,98917.75
2023-05-17T09:59:16.382Z,98916.27
2023-05-17T10:01:48.171Z,98910.91
2023-05-17T10:04:20.827Z,98910.66
2023-05-17T10:06:51.710Z,98910.33
2023-05-17T10:09:22.311Z,98907.05
2023-05-17T10:11:49.667Z,98908.44
2023-05-17T10:14:35.103Z,98910.99
2023-05-17T10:17:03.338Z,98906.79
2023-05-17T10:19:30.783Z,98911.73
2023-05-17T10:22:05.088Z,98912.86
2023-05-17T10:24:38.375Z,98913.36
2023-05-17T10:27:06.772Z,98909.21
2023-05-17T10:29:35.024Z,98910.91
2023-05-17T10:32:07.458Z,98910.02
2023-05-17T10:34:36.234Z,98911.24
2023-05-17T10:37:03.924Z,98911.11
2023-05-17T10:39:34.394Z,98912.63
2023-05-17T10:42:13.671Z,98904.45
2023-05-17T10:44:41.802Z,98908.20
2023-05-17T10:47:09.143Z,98906.91
2023-05-17T10:49:37.672Z,98911.98
2023-05-17T10:52:16.070Z,98911.05
2023-05-17T10:54:44.252Z,98912.90
2023-05-17T10:57:24.053Z,98915.85
2023-05-17T11:00:00.744Z,98919.31
2023-05-17T11:02:28.527Z,98915.92
2023-05-17T11:05:00.580Z,98919.50
2023-05-17T11:07:37.471Z,98922.63
2023-05-17T11:10:07.229Z,98926.74
2023-05-17T11:12:42.566Z,98928.79
2023-05-17T11:15:16.117Z,98927.44
2023-05-17T11:17:43.116Z,98924.74
2023-05-17T11:20:17.302Z,98928.71
2023-05-17T11:22:53.069Z,98926.55
2023-05-17T11:25:21.682Z,98927.10
2023-05-17T11:27:49.932Z,98925.44
2023-05-17T11:30:31.088Z,98924.16
2023-05-17T11:33:02.095Z,98926.88
2023-05-17T11:35:35.500Z,98923.41
2023-05-17T11:38:24.818Z,98927.65
2023-05-17T11:40:55.560Z,98926.88
2023-05-17T11:43:27.525Z,98930.59
2023-05-17T11:45:57.812Z,98930.01
2023-05-17T11:48:26.577Z,98930.29
2023-05-17T11:50:54.790Z,98934.31
2023-05-17T11:53:22.122Z,98930.26
2023-05-17T11:55:52.997Z,98931.38
2023-05-17T11:58:27.026Z,98934.13
2023-05-17T12:00:55.911Z,98934.85
2023-05-17T12:03:29.545Z,98931.27
2023-05-17T12:06:07.019Z,98934.77
2023-05-17T12:08:34.972Z,98938.92
2023-05-17T12:11:05.231Z,98939.03
2023-05-17T12:13:33.993Z,98938.35
2023-05-17T12:16:05.933Z,98936.23
2023-05-17T12:18:52.727Z,98939.77
2023-05-17T12:21:21.581Z,98937.64
2023-05-17T12:23:52.149Z,98942.74
2023-05-17T12:26:22.500Z,98945.41
2023-05-17T12:28:57.703Z,98944.90
2023-05-17T12:31:35.359Z,98946.98
2023-05-17T12:34:02.993Z,98949.44
2023-05-17T12:36:30.302Z,98947.85
2023-05-17T12:38:57.397Z,98949.19
2023-05-17T12:41:26.410Z,98944.60
2023-05-17T12:44:06.204Z,98947.78
2023-05-17T12:46:40.612Z,98947.60
2023-05-17T12:49:12.168Z,98947.11
2023-05-17T12:51:43.961Z,98951.09
2023-05-17T12:54:16.247Z,98948.52
2023-05-17T12:56:44.719Z,98947.81
2023-05-17T12:59:13.177Z,98950.03
2023-05-17T13:01:45.058Z,98945.42
2023-05-17T13:04:14.310Z,98952.98
2023-05-17T13:06:51.982Z,98956.13
2023-05-17T13:09:21.004Z,98959.34
2023-05-17T13:12:05.139Z,98957.41
2023-05-17T13:14:36.791Z,98961.38
2023-05-17T13:17:06.032Z,98968.17
2023-05-17T13:19:36.021Z,98971.34
2023-05-17T13:22:04.665Z,98971.30
2023-05-17T13:24:34.558Z,98973.27
2023-05-17T13:27:02.138Z,98974.02
2023-05-17T13:29:38.763Z,98974.75
2023-05-17T13:32:10.313Z,98978.64
2023-05-17T13:34:37.482Z,98978.58
2023-05-17T13:37:05.044Z,98979.76
2023-05-17T13:39:33.414Z,98980.64
2023-05-17T13:42:02.539Z,98981.08
2023-05-17T13:44:31.811Z,98979.33
2023-05-17T13:46:59.207Z,98981.16
2023-05-17T13:49:26.836Z,98976.97
2023-05-17T13:51:53.788Z,98983.14
2023-05-17T13:54:22.219Z,98977.11
2023-05-17T13:56:49.337Z,98982.23
2023-05-17T13:59:16.453Z,98980.31
2023-05-17T14:01:44.159Z,98981.80
2023-05-17T14:04:12.155Z,98983.77
2023-05-17T14:06:39.394Z,98983.94
2023-05-17T14:09:06.647Z,98981.46
2023-05-17T14:11:34.310Z,98981.39
2023-05-17T14:14:01.748Z,98979.71
2023-05-17T14:16:29.936Z,98982.70
2023-05-17T14:18:57.110Z,98984.88
2023-05-17T14:21:24.162Z,98984.61
2023-05-17T14:23:51.634Z,98986.21
2023-05-17T14:26:18.683Z,98986.75
2023-05-17T14:28:45.794Z,98984.68
2023-05-17T14:31:12.777Z,98985.06
2023-05-17T14:33:39.887Z,98983.83
2023-05-17T14:36:07.725Z,98985.41
2023-05-17T14:38:34.945Z,98987.96
2023-05-17T14:41:02.611Z,98988.49
2023-05-17T14:43:29.584Z,98987.58
2023-05-17T14:50:23.066Z,98988.85
2023-05-17T14:52:50.182Z,98987.98
2023-05-17T14:55:17.851Z,98985.98
2023-05-17T14:57:44.924Z,98979.24
2023-05-17T15:00:12.748Z,98981.81
2023-05-17T15:02:39.884Z,98981.86
2023-05-17T15:05:07.672Z,98981.77
2023-05-17T15:07:34.916Z,98977.25
2023-05-17T15:10:06.269Z,98974.30
2023-05-17T15:12:33.419Z,98972.23
2023-05-17T15:15:00.703Z,98966.20
2023-05-17T15:17:28.368Z,98960.96
2023-05-17T15:19:57.882Z,98961.34
2023-05-17T15:22:25.595Z,98960.52
2023-05-17T15:24:54.359Z,98961.45
2023-05-17T15:27:21.617Z,98960.04
2023-05-17T15:29:48.583Z,98959.36
2023-05-17T15:32:15.638Z,98961.94
2023-05-17T15:34:42.603Z,98955.15
2023-05-17T15:37:09.824Z,98949.71
2023-05-17T15:39:36.901Z,98948.53
2023-05-17T15:42:04.452Z,98944.66
2023-05-17T15:44:31.578Z,98944.11
2023-05-17T15:46:59.877Z,98942.72
2023-05-17T15:49:28.612Z,98938.95
2023-05-17T15:51:55.581Z,98937.90
2023-05-17T15:54:22.490Z,98934.11
2023-05-17T15:56:49.408Z,98934.30
2023-05-17T15:59:16.527Z,98930.26
2023-05-17T16:01:47.001Z,98935.15
2023-05-17T16:04:14.269Z,98940.02
2023-05-17T16:06:41.442Z,98939.17
2023-05-17T16:09:08.589Z,98940.58
2023-05-17T16:11:35.667Z,98938.51
2023-05-17T16:14:02.680Z,98943.73
2023-05-17T16:16:29.839Z,98942.59
2023-05-17T16:18:58.421Z,98939.44
2023-05-17T16:21:26.264Z,98940.66
2023-05-17T16:23:53.539Z,98938.91
2023-05-17T16:26:21.278Z,98937.10
2023-05-17T16:28:48.350Z,98937.59
2023-05-17T16:31:15.555Z,98940.23
2023-05-17T16:33:42.787Z,98940.05
2023-05-17T16:36:10.716Z,98934.80
2023-05-17T16:38:37.915Z,98936.55
2023-05-17T16:41:05.015Z,98938.02
2023-05-17T16:43:32.063Z,98937.87
2023-05-17T16:45:59.116Z,98943.00
2023-05-17T16:48:26.214Z,98940.90
2023-05-17T16:50:54.164Z,98943.23
2023-05-17T16:53:22.221Z,98938.00
2023-05-17T16:55:49.241Z,98935.70
2023-05-17T16:58:16.318Z,98942.38
2023-05-17T17:00:43.438Z,98941.98
2023-05-17T17:03:11.379Z,98938.70
2023-05-17T17:05:38.453Z,98935.00
2023-05-17T17:08:05.708Z,98936.79
2023-05-17T17:10:32.750Z,98933.14
2023-05-17T17:12:59.797Z,98934.88
2023-05-17T17:15:27.045Z,98935.27
2023-05-17T17:17:54.047Z,98937.23
2023-05-17T17:20:21.082Z,98935.52
2023-05-17T17:22:48.128Z,98936.09
2023-05-17T17:25:15.075Z,98937.40
2023-05-17T17:27:42.376Z,98936.69
2023-05-17T17:30:10.070Z,98933.19
2023-05-17T17:32:37.868Z,98929.27
2023-05-17T17:35:05.873Z,98933.70
2023-05-17T17:37:33.029Z,98931.59
2023-05-17T17:40:00.228Z,98934.73
2023-05-17T17:42:27.889Z,98932.06
2023-05-17T17:44:55.522Z,98935.53
2023-05-17T17:47:22.670Z,98932.57
2023-05-17T17:49:49.996Z,98933.85
2023-05-17T17:52:16.977Z,98932.98
2023-05-17T17:54:45.991Z,98938.77
2023-05-17T17:57:13.300Z,98936.55
2023-05-17T17:59:40.379Z,98938.27
2023-05-17T18:02:07.289Z,98939.84
2023-05-17T18:04:34.347Z,98939.07
2023-05-17T18:07:02.254Z,98943.44
2023-05-17T18:09:29.203Z,98945.23
2023-05-17T18:11:57.205Z,98947.42
2023-05-17T18:14:24.247Z,98944.67
2023-05-17T18:16:51.277Z,98951.88
2023-05-17T18:19:18.386Z,98949.09
2023-05-17T18:21:46.110Z,98952.20
2023-05-17T18:24:13.472Z,98953.58
2023-05-17T18:26:40.716Z,98956.33
2023-05-17T18:29:07.769Z,98955.46
2023-05-17T18:31:34.853Z,98954.61
2023-05-17T18:34:02.385Z,98957.31
2023-05-17T18:36:29.410Z,98959.66
2023-05-17T18:38:58.915Z,98960.70
2023-05-17T18:41:26.371Z,98958.58
2023-05-17T18:43:53.519Z,98957.63
2023-05-17T18:46:20.607Z,98962.27
2023-05-17T18:48:47.586Z,98959.05
2023-05-17T18:51:15.835Z,98962.55
2023-05-17T18:53:42.966Z,98962.16
2023-05-17T18:56:10.035Z,98963.63
2023-05-17T18:58:37.093Z,98959.61
2023-05-17T19:01:04.100Z,98961.52
2023-05-17T19:03:31.438Z,98960.28
2023-05-17T19:05:58.417Z,98962.24
2023-05-17T19:08:25.630Z,98959.00
2023-05-17T19:10:52.777Z,98960.38
2023-05-17T19:13:19.744Z,98962.45
2023-05-17T19:15:46.698Z,98961.98
2023-05-17T19:18:13.759Z,98965.69
2023-05-17T19:20:40.759Z,98960.97
2023-05-17T19:23:08.004Z,98966.73
2023-05-17T19:25:35.053Z,98964.53
2023-05-17T19:28:02.061Z,98962.85
2023-05-17T19:30:32.570Z,98962.36
2023-05-17T19:32:59.919Z,98964.27
2023-05-17T19:35:26.831Z,98968.84
2023-05-17T19:37:56.750Z,98967.81
2023-05-17T19:40:24.436Z,98967.45
2023-05-17T19:42:51.564Z,98966.71
2023-05-17T19:45:18.702Z,98968.88
2023-05-17T19:47:45.883Z,98970.00
2023-05-17T19:50:13.617Z,98969.93
2023-05-17T19:52:40.659Z,98970.95
2023-05-17T19:55:07.814Z,98972.77
2023-05-17T19:57:34.954Z,98971.42
2023-05-17T20:00:02.483Z,98972.12
2023-05-17T20:02:31.499Z,98972.61
2023-05-17T20:05:02.339Z,98975.87
2023-05-17T20:07:30.759Z,98974.71
2023-05-17T20:09:57.772Z,98978.45
2023-05-17T20:12:26.036Z,98980.20
2023-05-17T20:14:53.633Z,98979.41
2023-05-17T20:17:21.155Z,98979.81
2023-05-17T20:19:48.214Z,98980.62
2023-05-17T20:22:15.181Z,98982.61
2023-05-17T20:24:44.106Z,98982.58
2023-05-17T20:27:11.606Z,98984.14
2023-05-17T20:29:39.761Z,98984.05
2023-05-17T20:32:07.418Z,98982.48
2023-05-17T20:34:34.542Z,98985.94
2023-05-17T20:37:01.515Z,98986.22
2023-05-17T20:39:28.868Z,98987.77
2023-05-17T20:41:57.066Z,98987.81
2023-05-17T20:44:26.059Z,98987.69
2023-05-17T20:46:54.920Z,98986.10
2023-05-17T20:49:21.971Z,98988.16
2023-05-17T20:51:49.021Z,98991.35
2023-05-17T20:54:16.171Z,98989.79
2023-05-17T20:56:43.527Z,98985.89
2023-05-17T20:59:10.906Z,98985.92
2023-05-17T21:01:37.946Z,98987.65
2023-05-17T21:04:05.224Z,98988.10
2023-05-17T21:06:32.804Z,98986.71
2023-05-17T21:09:02.631Z,98985.71
2023-05-17T21:11:29.968Z,98985.17
2023-05-17T21:14:00.179Z,98987.51
2023-05-17T21:16:27.355Z,98987.22
2023-05-17T21:18:54.576Z,98992.69
2023-05-17T21:21:21.773Z,98994.02
2023-05-17T21:23:48.999Z,98997.96
2023-05-17T21:26:16.066Z,98999.55
2023-05-17T21:28:43.122Z,98997.60
2023-05-17T21:31:10.193Z,98997.31
2023-05-17T21:33:37.410Z,98997.44
2023-05-17T21:36:04.491Z,98996.35
2023-05-17T21:38:31.606Z,98996.23
2023-05-17T21:40:58.675Z,98994.13
2023-05-17T21:43:25.813Z,98996.03
2023-05-17T21:45:52.745Z,98998.02
2023-05-17T21:48:19.700Z,99001.23
2023-05-17T21:50:46.837Z,99001.23
2023-05-17T21:53:13.959Z,99002.27
2023-05-17T21:55:56.348Z,98999.05
2023-05-17T21:58:28.090Z,98998.48
2023-05-17T22:00:55.179Z,98999.73
2023-05-17T22:03:22.541Z,99000.41
2023-05-17T22:05:49.688Z,98996.45
2023-05-17T22:08:16.631Z,98997.21
2023-05-17T22:10:43.793Z,98999.63
2023-05-17T22:13:12.598Z,98995.51
2023-05-17T22:15:41.773Z,98994.73
2023-05-17T22:18:09.363Z,98995.61
2023-05-17T22:20:36.310Z,98998.33
2023-05-17T22:23:03.319Z,98998.12
2023-05-17T22:25:30.375Z,98996.02
2023-05-17T22:27:57.520Z,98995.36
2023-05-17T22:30:24.583Z,98996.48
2023-05-17T22:32:54.813Z,98991.58
2023-05-17T22:35:21.931Z,98995.08
2023-05-17T22:37:50.222Z,98992.56
2023-05-17T22:40:17.348Z,98995.09
2023-05-17T22:42:45.039Z,98989.98
2023-05-17T22:45:14.935Z,98989.77
2023-05-17T22:47:43.035Z,98992.49
2023-05-17T22:50:12.129Z,98992.11
2023-05-17T22:52:41.408Z,98991.50
2023-05-17T22:55:10.054Z,98992.39
2023-05-17T22:57:37.000Z,98992.05
2023-05-17T23:00:09.510Z,98995.69
2023-05-17T23:02:36.792Z,98995.75
2023-05-17T23:05:05.038Z,98995.55
2023-05-17T23:07:38.746Z,98995.83
2023-05-17T23:10:07.096Z,98994.84
2023-05-17T23:12:35.183Z,98995.35
2023-05-17T23:15:03.341Z,98999.89
2023-05-17T23:17:32.824Z,99001.20
2023-05-17T23:20:13.072Z,99000.29
2023-05-17T23:22:40.343Z,98999.48
2023-05-17T23:25:07.944Z,99000.67
2023-05-17T23:27:35.684Z,99004.14
2023-05-17T23:30:03.032Z,99008.94
2023-05-17T23:32:32.637Z,99007.35
2023-05-17T23:35:03.934Z,99011.58
2023-05-17T23:37:32.180Z,99013.85
2023-05-17T23:39:59.623Z,99010.54
2023-05-17T23:42:26.529Z,99016.92
2023-05-17T23:44:53.610Z,99017.10
2023-05-17T23:47:20.658Z,99020.52
2023-05-17T23:49:47.842Z,99021.95
2023-05-17T23:52:15.168Z,99026.55
2023-05-17T23:54:42.132Z,99034.06
2023-05-17T23:57:09.355Z,99041.02
2023-05-17T23:59:37.120Z,99041.63
